createdAt,value
2023-04-13T00:01:34.540Z,1.17
2023-04-13T00:04:04.645Z,0.73
2023-04-13T00:06:34.034Z,0.87
2023-04-13T00:09:03.751Z,0.80
2023-04-13T00:11:31.931Z,0.93
2023-04-13T00:14:01.882Z,0.80
2023-04-13T00:16:32.115Z,0.80
2023-04-13T00:19:00.317Z,0.60
2023-04-13T00:21:28.372Z,0.80
2023-04-13T00:23:59.128Z,1.00
2023-04-13T00:26:27.348Z,0.80
2023-04-13T00:28:55.795Z,0.80
2023-04-13T00:31:28.974Z,1.00
2023-04-13T00:33:58.790Z,0.80
2023-04-13T00:36:30.311Z,0.90
2023-04-13T00:38:58.677Z,0.60
2023-04-13T00:41:27.698Z,0.80
2023-04-13T00:43:59.489Z,1.20
2023-04-13T00:46:37.374Z,0.90
2023-04-13T00:49:07.653Z,0.60
2023-04-13T00:51:36.411Z,0.90
2023-04-13T00:54:04.814Z,1.03
2023-04-13T00:56:34.312Z,0.90
2023-04-13T00:59:04.342Z,0.73
2023-04-13T01:01:32.408Z,0.80
2023-04-13T01:04:01.467Z,0.97
2023-04-13T01:06:41.849Z,1.40
2023-04-13T01:09:16.900Z,1.00
2023-04-13T01:11:50.994Z,0.90
2023-04-13T01:14:26.974Z,0.80
2023-04-13T01:17:02.390Z,1.20
2023-04-13T01:19:44.922Z,1.10
2023-04-13T01:22:17.990Z,0.90
2023-04-13T01:24:59.125Z,0.80
2023-04-13T01:27:47.795Z,1.00
2023-04-13T01:30:20.248Z,0.80
2023-04-13T01:32:50.021Z,1.10
2023-04-13T01:35:20.853Z,1.33
2023-04-13T01:37:51.047Z,0.87
2023-04-13T01:40:20.364Z,0.83
2023-04-13T01:42:56.465Z,0.90
2023-04-13T01:45:29.064Z,1.30
2023-04-13T01:48:07.391Z,0.90
2023-04-13T01:51:13.434Z,0.97
2023-04-13T01:53:52.950Z,0.80
2023-04-13T01:56:23.474Z,0.93
2023-04-13T01:59:00.815Z,0.80
2023-04-13T02:01:31.437Z,1.00
2023-04-13T02:04:02.420Z,0.80
2023-04-13T02:06:32.751Z,1.10
2023-04-13T02:09:07.031Z,0.70
2023-04-13T02:11:37.250Z,1.07
2023-04-13T02:14:09.961Z,0.77
2023-04-13T02:16:38.886Z,1.10
2023-04-13T02:19:07.820Z,0.80
2023-04-13T02:21:36.225Z,1.20
2023-04-13T02:24:04.456Z,0.80
2023-04-13T02:26:35.064Z,0.70
2023-04-13T02:29:04.256Z,0.80
2023-04-13T02:31:34.635Z,1.30
2023-04-13T02:34:03.299Z,1.00
2023-04-13T02:36:32.878Z,1.13
2023-04-13T02:39:06.082Z,0.80
2023-04-13T02:41:35.480Z,0.80
2023-04-13T02:44:04.101Z,0.80
2023-04-13T02:46:45.811Z,1.20
2023-04-13T02:49:17.601Z,1.07
2023-04-13T02:52:02.216Z,0.70
2023-04-13T02:55:05.017Z,1.00
2023-04-13T02:57:46.813Z,0.90
2023-04-13T03:00:34.370Z,1.00
2023-04-13T03:03:09.202Z,0.90
2023-04-13T03:05:44.060Z,1.60
2023-04-13T03:08:17.836Z,0.87
2023-04-13T03:11:09.524Z,0.97
2023-04-13T03:13:43.209Z,0.80
2023-04-13T03:16:12.680Z,1.00
2023-04-13T03:18:42.964Z,1.13
2023-04-13T03:21:14.960Z,0.97
2023-04-13T03:23:59.774Z,1.00
2023-04-13T03:26:29.098Z,0.60
2023-04-13T03:29:01.222Z,0.80
2023-04-13T03:31:34.080Z,0.70
2023-04-13T03:34:03.498Z,1.20
2023-04-13T03:36:32.196Z,0.93
2023-04-13T03:39:02.992Z,1.17
2023-04-13T03:41:35.765Z,0.67
2023-04-13T03:44:06.676Z,0.80
2023-04-13T03:46:37.775Z,1.07
2023-04-13T03:49:17.202Z,0.90
2023-04-13T03:51:47.005Z,0.70
2023-04-13T03:54:18.410Z,0.80
2023-04-13T03:56:47.956Z,1.10
2023-04-13T03:59:15.994Z,0.87
2023-04-13T04:01:44.991Z,0.83
2023-04-13T04:04:15.079Z,0.80
2023-04-13T04:06:45.280Z,1.10
2023-04-13T04:09:16.131Z,0.90
2023-04-13T04:11:47.577Z,1.00
2023-04-13T04:14:23.818Z,1.00
2023-04-13T04:17:01.878Z,1.23
2023-04-13T04:19:31.038Z,0.90
2023-04-13T04:22:05.072Z,0.80
2023-04-13T04:24:37.581Z,0.93
2023-04-13T04:27:06.620Z,0.97
2023-04-13T04:29:37.852Z,0.90
2023-04-13T04:32:24.424Z,1.03
2023-04-13T04:35:04.408Z,0.90
2023-04-13T04:37:39.253Z,0.83
2023-04-13T04:40:15.072Z,0.83
2023-04-13T04:42:44.408Z,0.80
2023-04-13T04:45:27.544Z,0.90
2023-04-13T04:47:59.521Z,1.10
2023-04-13T04:50:29.316Z,1.10
2023-04-13T04:53:13.260Z,0.80
2023-04-13T04:55:42.667Z,1.00
2023-04-13T04:58:19.930Z,1.10
2023-04-13T05:00:52.562Z,0.90
2023-04-13T05:03:22.120Z,1.13
2023-04-13T05:05:57.849Z,1.40
2023-04-13T05:08:54.715Z,1.07
2023-04-13T05:11:23.428Z,1.13
2023-04-13T05:13:52.115Z,1.27
2023-04-13T05:16:31.366Z,0.90
2023-04-13T05:19:08.435Z,1.00
2023-04-13T05:21:46.476Z,1.30
2023-04-13T05:24:16.101Z,1.20
2023-04-13T05:26:45.203Z,1.20
2023-04-13T05:29:17.610Z,0.90
2023-04-13T05:31:47.567Z,1.10
2023-04-13T05:34:16.887Z,1.30
2023-04-13T05:36:59.673Z,1.40
2023-04-13T05:39:31.044Z,1.30
2023-04-13T05:41:59.281Z,1.73
2023-04-13T05:44:30.320Z,1.40
2023-04-13T05:46:58.602Z,1.17
2023-04-13T05:49:27.499Z,1.03
2023-04-13T05:51:55.823Z,1.03
2023-04-13T05:54:35.748Z,1.23
2023-04-13T05:57:04.471Z,1.40
2023-04-13T05:59:32.854Z,1.07
2023-04-13T06:02:03.424Z,1.37
2023-04-13T06:04:35.625Z,1.47
2023-04-13T06:07:04.104Z,1.10
2023-04-13T06:09:33.456Z,1.37
2023-04-13T06:12:03.315Z,1.90
2023-04-13T06:14:31.852Z,1.40
2023-04-13T06:17:00.649Z,1.13
2023-04-13T06:19:29.283Z,1.40
2023-04-13T06:21:58.382Z,1.40
2023-04-13T06:24:27.194Z,1.60
2023-04-13T06:26:57.072Z,1.60
2023-04-13T06:29:27.124Z,2.00
2023-04-13T06:32:07.888Z,1.90
2023-04-13T06:34:37.196Z,1.27
2023-04-13T06:37:08.389Z,1.67
2023-04-13T06:39:45.122Z,1.40
2023-04-13T06:42:15.701Z,1.80
2023-04-13T06:45:06.554Z,2.17
2023-04-13T06:47:42.256Z,1.80
2023-04-13T06:50:15.557Z,1.33
2023-04-13T06:52:47.722Z,1.50
2023-04-13T06:55:18.277Z,1.40
2023-04-13T06:57:46.447Z,1.27
2023-04-13T07:00:29.487Z,1.40
2023-04-13T07:03:02.337Z,2.00
2023-04-13T07:05:33.982Z,1.53
2023-04-13T07:08:07.972Z,1.37
2023-04-13T07:10:40.735Z,1.53
2023-04-13T07:13:15.924Z,1.70
2023-04-13T07:15:46.815Z,1.83
2023-04-13T07:18:17.750Z,1.80
2023-04-13T07:20:47.724Z,1.00
2023-04-13T07:23:18.414Z,1.20
2023-04-13T07:25:46.469Z,1.17
2023-04-13T07:28:23.239Z,1.60
2023-04-13T07:30:56.874Z,1.30
2023-04-13T07:33:25.786Z,1.23
2023-04-13T07:35:55.624Z,1.20
2023-04-13T07:38:28.230Z,1.37
2023-04-13T07:40:56.390Z,1.50
2023-04-13T07:43:26.582Z,1.20
2023-04-13T07:45:59.722Z,1.17
2023-04-13T07:48:31.282Z,1.30
2023-04-13T07:51:08.341Z,1.53
2023-04-13T07:53:37.320Z,1.50
2023-04-13T07:56:05.801Z,1.40
2023-04-13T07:58:39.135Z,1.17
2023-04-13T08:01:09.948Z,1.37
2023-04-13T08:03:39.958Z,1.20
2023-04-13T08:06:18.107Z,1.20
2023-04-13T08:08:46.207Z,1.40
2023-04-13T08:11:14.687Z,1.00
2023-04-13T08:13:44.489Z,0.90
2023-04-13T08:16:15.902Z,1.27
2023-04-13T08:18:48.478Z,0.90
2023-04-13T08:21:17.964Z,1.20
2023-04-13T08:23:49.480Z,1.30
2023-04-13T08:26:18.301Z,1.40
2023-04-13T08:28:48.006Z,1.13
2023-04-13T08:31:20.412Z,1.47
2023-04-13T08:33:57.829Z,0.97
2023-04-13T08:36:27.886Z,0.93
2023-04-13T08:39:05.330Z,1.50
2023-04-13T08:41:42.003Z,1.20
2023-04-13T08:44:13.315Z,1.20
2023-04-13T08:46:50.690Z,1.47
2023-04-13T08:49:28.136Z,1.20
2023-04-13T08:52:12.723Z,1.00
2023-04-13T08:54:43.499Z,1.13
2023-04-13T08:57:23.149Z,1.20
2023-04-13T08:59:53.177Z,1.10
2023-04-13T09:02:26.696Z,1.37
2023-04-13T09:05:05.530Z,1.20
2023-04-13T09:07:37.168Z,1.80
2023-04-13T09:10:16.734Z,1.50
2023-04-13T09:12:51.233Z,1.70
2023-04-13T09:15:20.495Z,1.67
2023-04-13T09:18:07.826Z,1.50
2023-04-13T09:20:44.512Z,1.40
2023-04-13T09:23:15.840Z,2.03
2023-04-13T09:25:45.478Z,1.53
2023-04-13T09:28:18.711Z,1.67
2023-04-13T09:30:48.263Z,1.60
2023-04-13T09:33:18.808Z,1.60
2023-04-13T09:35:46.925Z,1.97
2023-04-13T09:38:16.981Z,1.73
2023-04-13T09:40:54.188Z,1.93
2023-04-13T09:43:23.188Z,1.70
2023-04-13T09:45:51.224Z,2.47
2023-04-13T09:48:24.277Z,2.37
2023-04-13T09:51:04.331Z,1.73
2023-04-13T09:53:42.653Z,1.70
2023-04-13T09:56:11.233Z,2.00
2023-04-13T09:58:43.166Z,2.03
2023-04-13T10:01:11.398Z,1.80
2023-04-13T10:03:40.881Z,1.60
2023-04-13T10:06:09.902Z,1.20
2023-04-13T10:08:39.226Z,2.03
2023-04-13T10:11:12.278Z,1.97
2023-04-13T10:13:46.683Z,2.23
2023-04-13T10:16:36.988Z,2.17
2023-04-13T10:19:12.521Z,1.90
2023-04-13T10:21:47.800Z,2.30
2023-04-13T10:24:17.549Z,2.70
2023-04-13T10:26:46.639Z,2.17
2023-04-13T10:29:16.378Z,2.07
2023-04-13T10:31:49.025Z,1.77
2023-04-13T10:34:27.156Z,2.43
2023-04-13T10:36:58.431Z,1.80
2023-04-13T10:39:27.955Z,2.23
2023-04-13T10:42:06.237Z,1.40
2023-04-13T10:44:45.311Z,1.80
2023-04-13T10:47:14.447Z,2.00
2023-04-13T10:49:44.791Z,2.00
2023-04-13T10:52:13.305Z,1.70
2023-04-13T10:54:43.404Z,2.60
2023-04-13T10:57:13.385Z,1.73
2023-04-13T11:02:17.277Z,2.37
2023-04-13T11:04:48.566Z,2.27
2023-04-13T11:07:19.321Z,2.07
2023-04-13T11:09:51.277Z,3.13
2023-04-13T11:12:20.632Z,2.60
2023-04-13T11:14:49.533Z,2.60
2023-04-13T11:17:19.414Z,2.30
2023-04-13T11:19:50.692Z,3.23
2023-04-13T11:22:21.917Z,2.60
2023-04-13T11:24:53.191Z,3.10
2023-04-13T11:27:23.122Z,1.70
2023-04-13T11:29:58.292Z,2.83
2023-04-13T11:32:27.944Z,3.20
2023-04-13T11:35:11.386Z,3.03
2023-04-13T11:37:43.243Z,3.20
2023-04-13T11:40:15.218Z,3.30
2023-04-13T11:42:47.056Z,2.87
2023-04-13T11:45:19.688Z,2.93
2023-04-13T11:47:52.098Z,2.70
2023-04-13T11:50:22.411Z,2.90
2023-04-13T11:52:56.328Z,3.63
2023-04-13T11:55:24.908Z,2.70
2023-04-13T11:57:54.447Z,3.17
2023-04-13T12:00:27.122Z,3.30
2023-04-13T12:03:02.670Z,3.20
2023-04-13T12:05:34.229Z,3.00
2023-04-13T12:08:04.261Z,2.70
2023-04-13T12:10:41.297Z,1.83
2023-04-13T12:13:23.999Z,2.90
2023-04-13T12:16:08.887Z,1.60
2023-04-13T12:18:47.548Z,2.17
2023-04-13T12:21:20.868Z,2.50
2023-04-13T12:23:56.443Z,1.97
2023-04-13T12:27:16.385Z,2.47
2023-04-13T12:29:24.531Z,4.07
2023-04-13T12:31:53.057Z,2.17
2023-04-13T12:34:22.588Z,2.33
2023-04-13T12:36:51.918Z,2.00
2023-04-13T12:39:20.404Z,2.90
2023-04-13T12:41:49.498Z,2.73
2023-04-13T12:44:17.928Z,1.90
2023-04-13T12:46:46.822Z,1.70
2023-04-13T12:49:14.830Z,2.60
2023-04-13T12:51:44.272Z,2.47
2023-04-13T12:54:14.579Z,3.10
2023-04-13T12:56:43.132Z,1.90
2023-04-13T12:59:11.233Z,3.40
2023-04-13T13:01:39.725Z,1.97
2023-04-13T13:04:08.281Z,2.00
2023-04-13T13:06:36.404Z,1.93
2023-04-13T13:09:05.551Z,2.20
2023-04-13T13:11:35.974Z,2.17
2023-04-13T13:14:05.314Z,2.30
2023-04-13T13:16:34.065Z,1.60
2023-04-13T13:19:02.848Z,2.37
2023-04-13T13:21:31.478Z,2.17
2023-04-13T13:24:04.284Z,1.93
2023-04-13T13:26:51.663Z,2.37
2023-04-13T13:29:24.520Z,2.17
2023-04-13T13:31:56.402Z,2.77
2023-04-13T13:34:24.497Z,3.27
2023-04-13T13:36:52.961Z,2.10
2023-04-13T13:39:23.227Z,3.00
2023-04-13T13:41:53.693Z,2.17
2023-04-13T13:44:21.810Z,3.00
2023-04-13T13:46:51.741Z,1.93
2023-04-13T13:49:22.734Z,2.53
2023-04-13T13:52:05.999Z,2.20
2023-04-13T13:54:43.771Z,2.70
2023-04-13T13:57:13.334Z,2.87
2023-04-13T13:59:41.488Z,2.13
2023-04-13T14:02:11.210Z,2.80
2023-04-13T14:04:40.287Z,2.43
2023-04-13T14:07:08.618Z,2.40
2023-04-13T14:09:37.131Z,2.07
2023-04-13T14:12:06.193Z,3.13
2023-04-13T14:14:34.643Z,2.53
2023-04-13T14:17:02.654Z,2.20
2023-04-13T14:19:32.499Z,2.90
2023-04-13T14:22:00.533Z,1.80
2023-04-13T14:24:28.960Z,2.50
2023-04-13T14:26:57.864Z,2.30
2023-04-13T14:29:26.391Z,2.40
2023-04-13T14:31:54.640Z,1.97
2023-04-13T14:34:24.804Z,2.50
2023-04-13T14:36:55.159Z,1.90
2023-04-13T14:39:25.858Z,2.13
2023-04-13T14:41:55.885Z,1.80
2023-04-13T14:44:25.503Z,3.00
2023-04-13T14:46:53.606Z,2.00
2023-04-13T14:49:22.331Z,1.63
2023-04-13T14:51:50.558Z,2.70
2023-04-13T14:54:19.960Z,2.20
2023-04-13T14:56:49.011Z,1.83
2023-04-13T14:59:17.120Z,1.97
2023-04-13T15:01:45.795Z,2.00
2023-04-13T15:04:15.789Z,1.60
2023-04-13T15:06:48.099Z,1.80
2023-04-13T15:09:16.522Z,2.23
2023-04-13T15:11:46.525Z,2.23
2023-04-13T15:14:16.420Z,1.63
2023-04-13T15:16:44.490Z,2.37
2023-04-13T15:19:13.874Z,1.80
2023-04-13T15:21:42.548Z,1.97
2023-04-13T15:24:10.894Z,2.37
2023-04-13T15:26:40.671Z,2.37
2023-04-13T15:29:10.869Z,2.33
2023-04-13T15:31:39.772Z,2.40
2023-04-13T15:34:08.847Z,1.77
2023-04-13T15:36:37.202Z,2.23
2023-04-13T15:39:05.300Z,2.03
2023-04-13T15:41:33.398Z,1.80
2023-04-13T15:44:01.940Z,2.10
2023-04-13T15:46:33.233Z,2.57
2023-04-13T15:49:01.650Z,2.30
2023-04-13T15:51:31.854Z,2.10
2023-04-13T15:54:00.034Z,2.60
2023-04-13T15:56:31.744Z,2.60
2023-04-13T15:58:59.957Z,1.50
2023-04-13T16:01:29.049Z,1.87
2023-04-13T16:03:58.589Z,2.40
2023-04-13T16:06:27.686Z,1.93
2023-04-13T16:08:58.828Z,1.83
2023-04-13T16:11:28.441Z,2.10
2023-04-13T16:14:00.916Z,2.30
2023-04-13T16:16:32.490Z,2.10
2023-04-13T16:19:03.558Z,1.70
2023-04-13T16:21:34.670Z,2.53
2023-04-13T16:24:02.697Z,1.93
2023-04-13T16:26:30.804Z,1.60
2023-04-13T16:28:59.735Z,2.30
2023-04-13T16:31:28.077Z,2.30
2023-04-13T16:33:57.115Z,2.00
2023-04-13T16:36:28.016Z,2.07
2023-04-13T16:38:58.595Z,2.00
2023-04-13T16:41:27.411Z,2.13
2023-04-13T16:43:55.970Z,2.10
2023-04-13T16:46:28.022Z,2.50
2023-04-13T16:48:57.451Z,1.90
2023-04-13T16:51:27.059Z,2.30
2023-04-13T16:53:55.101Z,2.43
2023-04-13T16:56:26.387Z,2.00
2023-04-13T16:58:54.829Z,2.00
2023-04-13T17:01:25.492Z,2.80
2023-04-13T17:03:54.448Z,2.17
2023-04-13T17:06:22.511Z,2.00
2023-04-13T17:08:52.591Z,2.27
2023-04-13T17:11:22.062Z,1.90
2023-04-13T17:13:51.790Z,1.70
2023-04-13T17:16:19.882Z,2.67
2023-04-13T17:18:48.832Z,2.00
2023-04-13T17:21:17.195Z,2.50
2023-04-13T17:23:47.817Z,1.77
2023-04-13T17:26:17.220Z,1.73
2023-04-13T17:28:45.565Z,2.47
2023-04-13T17:31:14.380Z,2.10
2023-04-13T17:33:44.869Z,1.60
2023-04-13T17:36:13.382Z,1.73
2023-04-13T17:38:41.447Z,2.67
2023-04-13T17:41:10.471Z,2.63
2023-04-13T17:43:41.345Z,2.60
2023-04-13T17:46:09.498Z,2.83
2023-04-13T17:48:37.576Z,2.83
2023-04-13T17:51:11.534Z,2.27
2023-04-13T17:53:39.829Z,2.33
2023-04-13T17:56:10.425Z,2.43
2023-04-13T17:58:39.763Z,2.53
2023-04-13T18:01:09.257Z,2.13
2023-04-13T18:03:37.657Z,2.73
2023-04-13T18:06:06.882Z,3.50
2023-04-13T18:08:34.937Z,2.70
2023-04-13T18:11:03.097Z,2.30
2023-04-13T18:13:32.411Z,3.07
2023-04-13T18:16:02.249Z,2.50
2023-04-13T18:18:30.563Z,3.03
2023-04-13T18:21:00.485Z,2.70
2023-04-13T18:23:28.656Z,2.27
2023-04-13T18:25:56.669Z,2.60
2023-04-13T18:28:25.869Z,2.70
2023-04-13T18:30:53.883Z,3.30
2023-04-13T18:33:23.338Z,2.60
2023-04-13T18:35:52.246Z,2.20
2023-04-13T18:38:21.563Z,2.23
2023-04-13T18:40:50.291Z,3.10
2023-04-13T18:43:19.176Z,3.00
2023-04-13T18:45:48.349Z,2.60
2023-04-13T18:48:17.061Z,3.17
2023-04-13T18:50:48.217Z,3.60
2023-04-13T18:53:18.259Z,3.60
2023-04-13T18:55:50.173Z,3.97
2023-04-13T18:58:20.489Z,3.30
2023-04-13T19:00:49.317Z,3.83
2023-04-13T19:03:19.775Z,3.70
2023-04-13T19:05:50.340Z,3.40
2023-04-13T19:08:18.938Z,3.40
2023-04-13T19:10:47.013Z,2.83
2023-04-13T19:13:17.410Z,3.57
2023-04-13T19:15:45.409Z,2.93
2023-04-13T19:18:14.654Z,2.80
2023-04-13T19:20:43.234Z,2.33
2023-04-13T19:23:12.689Z,3.10
2023-04-13T19:25:40.910Z,3.07
2023-04-13T19:28:10.004Z,3.03
2023-04-13T19:30:38.529Z,3.00
2023-04-13T19:33:06.693Z,2.90
2023-04-13T19:35:35.256Z,2.90
2023-04-13T19:38:04.516Z,2.43
2023-04-13T19:40:36.204Z,3.60
2023-04-13T19:43:04.952Z,3.40
2023-04-13T19:45:33.529Z,3.00
2023-04-13T19:48:01.708Z,3.40
2023-04-13T19:50:32.593Z,2.93
2023-04-13T19:53:00.637Z,4.03
2023-04-13T19:55:29.303Z,4.30
2023-04-13T19:57:59.379Z,3.80
2023-04-13T20:00:29.660Z,2.73
2023-04-13T20:03:02.810Z,2.90
2023-04-13T20:05:31.318Z,3.40
2023-04-13T20:08:01.544Z,3.13
2023-04-13T20:10:29.593Z,4.00
2023-04-13T20:12:58.956Z,3.30
2023-04-13T20:15:29.750Z,3.80
2023-04-13T20:18:00.385Z,4.33
2023-04-13T20:20:30.049Z,3.57
2023-04-13T20:22:58.076Z,3.80
2023-04-13T20:25:27.136Z,4.77
2023-04-13T20:27:55.521Z,4.20
2023-04-13T20:30:25.454Z,4.60
2023-04-13T20:32:53.540Z,3.50
2023-04-13T20:35:22.248Z,3.50
2023-04-13T20:37:52.593Z,3.10
2023-04-13T20:40:27.082Z,3.57
2023-04-13T20:42:58.802Z,3.63
2023-04-13T20:45:28.171Z,3.33
2023-04-13T20:47:57.663Z,3.20
2023-04-13T20:50:27.753Z,2.90
2023-04-13T20:52:57.564Z,3.00
2023-04-13T20:55:26.660Z,2.60
2023-04-13T20:57:55.902Z,2.73
2023-04-13T21:00:24.955Z,2.17
2023-04-13T21:02:54.940Z,2.47
2023-04-13T21:05:24.069Z,2.60
2023-04-13T21:07:52.139Z,2.13
2023-04-13T21:10:20.948Z,3.27
2023-04-13T21:12:48.950Z,1.93
2023-04-13T21:15:17.556Z,1.90
2023-04-13T21:17:46.588Z,2.47
2023-04-13T21:20:16.089Z,2.60
2023-04-13T21:22:44.736Z,2.00
2023-04-13T21:25:12.785Z,2.70
2023-04-13T21:27:41.402Z,3.13
2023-04-13T21:30:10.383Z,3.10
2023-04-13T21:32:39.180Z,3.00
2023-04-13T21:35:08.453Z,3.73
2023-04-13T21:37:38.924Z,3.50
2023-04-13T21:40:08.154Z,3.40
2023-04-13T21:42:36.818Z,4.60
2023-04-13T21:45:06.640Z,3.23
2023-04-13T21:47:34.798Z,3.03
2023-04-13T21:50:02.863Z,3.20
2023-04-13T21:52:31.420Z,2.53
2023-04-13T21:55:01.124Z,2.87
2023-04-13T21:57:29.585Z,3.03
2023-04-13T21:59:58.572Z,2.47
2023-04-13T22:02:26.937Z,2.47
2023-04-13T22:04:55.108Z,3.90
2023-04-13T22:07:31.745Z,2.80
2023-04-13T22:10:09.894Z,2.57
2023-04-13T22:12:38.567Z,2.10
2023-04-13T22:15:08.872Z,2.50
2023-04-13T22:17:37.227Z,2.67
2023-04-13T22:20:09.462Z,2.80
2023-04-13T22:22:37.997Z,3.10
2023-04-13T22:25:08.049Z,3.20
2023-04-13T22:27:37.596Z,2.83
2023-04-13T22:30:07.016Z,2.77
2023-04-13T22:32:35.530Z,2.60
2023-04-13T22:35:04.180Z,2.97
2023-04-13T22:37:33.905Z,2.83
2023-04-13T22:40:02.276Z,2.17
2023-04-13T22:42:31.874Z,2.50
2023-04-13T22:44:59.968Z,2.67
2023-04-13T22:47:28.959Z,2.13
2023-04-13T22:49:59.138Z,2.27
2023-04-13T22:52:29.593Z,2.80
2023-04-13T22:54:58.383Z,3.60
2023-04-13T22:57:28.613Z,2.80
2023-04-13T22:59:57.970Z,3.30
2023-04-13T23:02:26.237Z,2.60
2023-04-13T23:04:55.496Z,2.37
2023-04-13T23:07:23.757Z,2.13
2023-04-13T23:09:52.559Z,2.57
2023-04-13T23:12:20.643Z,1.93
2023-04-13T23:14:48.675Z,1.90
2023-04-13T23:17:18.667Z,1.37
2023-04-13T23:19:47.032Z,2.10
2023-04-13T23:22:15.450Z,3.30
2023-04-13T23:24:43.557Z,2.20
2023-04-13T23:27:11.553Z,2.10
2023-04-13T23:29:45.346Z,1.87
2023-04-13T23:32:13.441Z,2.57
2023-04-13T23:34:43.037Z,2.30
2023-04-13T23:37:11.409Z,2.20
2023-04-13T23:39:39.414Z,2.53
2023-04-13T23:42:08.856Z,2.30
2023-04-13T23:44:37.559Z,2.80
2023-04-13T23:47:06.185Z,2.43
2023-04-13T23:49:35.381Z,3.10
2023-04-13T23:52:09.063Z,2.43
2023-04-13T23:54:37.109Z,2.70
2023-04-13T23:57:05.943Z,2.20
2023-04-13T23:59:34.942Z,2.20
